sensor_id;sensor_type;location;lat;lon;timestamp;P1;durP1;ratioP1;P2;durP2;ratioP2
12163;SDS011;6145;50.192;10.064;2023-05-13T00:00:43;4.57;;;4.17;;
12163;SDS011;6145;50.192;10.064;2023-05-13T00:03:11;4.70;;;3.70;;
12163;SDS011;6145;50.192;10.064;2023-05-13T00:05:39;5.27;;;4.70;;
12163;SDS011;6145;50.192;10.064;2023-05-13T00:08:06;5.33;;;4.33;;
12163;SDS011;6145;50.192;10.064;2023-05-13T00:10:33;4.63;;;4.23;;
12163;SDS011;6145;50.192;10.064;2023-05-13T00:13:00;4.80;;;4.33;;
12163;SDS011;6145;50.192;10.064;2023-05-13T00:15:29;4.47;;;4.07;;
12163;SDS011;6145;50.192;10.064;2023-05-13T00:17:56;5.03;;;4.57;;
12163;SDS011;6145;50.192;10.064;2023-05-13T00:20:23;6.00;;;4.67;;
12163;SDS011;6145;50.192;10.064;2023-05-13T00:22:51;5.70;;;4.73;;
12163;SDS011;6145;50.192;10.064;2023-05-13T00:25:18;4.57;;;4.17;;
12163;SDS011;6145;50.192;10.064;2023-05-13T00:27:45;5.13;;;4.63;;
12163;SDS011;6145;50.192;10.064;2023-05-13T00:30:12;5.33;;;4.50;;
12163;SDS011;6145;50.192;10.064;2023-05-13T00:32:39;5.37;;;4.90;;
12163;SDS011;6145;50.192;10.064;2023-05-13T00:35:06;5.27;;;4.17;;
12163;SDS011;6145;50.192;10.064;2023-05-13T00:37:34;4.30;;;3.90;;
12163;SDS011;6145;50.192;10.064;2023-05-13T00:40:02;4.90;;;4.40;;
12163;SDS011;6145;50.192;10.064;2023-05-13T00:42:29;4.87;;;4.37;;
12163;SDS011;6145;50.192;10.064;2023-05-13T00:44:56;4.97;;;4.57;;
12163;SDS011;6145;50.192;10.064;2023-05-13T00:47:23;4.83;;;4.43;;
12163;SDS011;6145;50.192;10.064;2023-05-13T00:49:50;4.50;;;4.10;;
12163;SDS011;6145;50.192;10.064;2023-05-13T00:52:17;4.40;;;4.00;;
12163;SDS011;6145;50.192;10.064;2023-05-13T00:54:44;5.13;;;3.67;;
12163;SDS011;6145;50.192;10.064;2023-05-13T00:57:12;4.33;;;3.93;;
12163;SDS011;6145;50.192;10.064;2023-05-13T00:59:39;4.07;;;3.67;;
12163;SDS011;6145;50.192;10.064;2023-05-13T01:02:08;4.27;;;3.97;;
12163;SDS011;6145;50.192;10.064;2023-05-13T01:04:41;5.40;;;4.17;;
12163;SDS011;6145;50.192;10.064;2023-05-13T01:07:17;4.50;;;4.10;;
12163;SDS011;6145;50.192;10.064;2023-05-13T01:09:52;8.57;;;4.20;;
12163;SDS011;6145;50.192;10.064;2023-05-13T01:12:30;3.90;;;3.50;;
12163;SDS011;6145;50.192;10.064;2023-05-13T01:15:03;5.90;;;3.60;;
12163;SDS011;6145;50.192;10.064;2023-05-13T01:17:31;4.13;;;3.67;;
12163;SDS011;6145;50.192;10.064;2023-05-13T01:20:03;4.60;;;4.20;;
12163;SDS011;6145;50.192;10.064;2023-05-13T01:22:32;5.47;;;4.03;;
12163;SDS011;6145;50.192;10.064;2023-05-13T01:25:00;4.50;;;4.10;;
12163;SDS011;6145;50.192;10.064;2023-05-13T01:27:27;4.00;;;3.60;;
12163;SDS011;6145;50.192;10.064;2023-05-13T01:29:54;4.47;;;4.07;;
12163;SDS011;6145;50.192;10.064;2023-05-13T01:32:21;6.13;;;3.90;;
12163;SDS011;6145;50.192;10.064;2023-05-13T01:34:49;6.73;;;4.37;;
12163;SDS011;6145;50.192;10.064;2023-05-13T01:37:17;5.07;;;4.40;;
12163;SDS011;6145;50.192;10.064;2023-05-13T01:39:46;3.63;;;3.33;;
12163;SDS011;6145;50.192;10.064;2023-05-13T01:42:13;4.80;;;3.83;;
12163;SDS011;6145;50.192;10.064;2023-05-13T01:44:40;4.60;;;3.50;;
12163;SDS011;6145;50.192;10.064;2023-05-13T01:47:07;5.20;;;4.07;;
12163;SDS011;6145;50.192;10.064;2023-05-13T01:49:35;3.77;;;3.53;;
12163;SDS011;6145;50.192;10.064;2023-05-13T01:52:01;5.10;;;4.60;;
12163;SDS011;6145;50.192;10.064;2023-05-13T01:54:29;4.73;;;4.33;;
12163;SDS011;6145;50.192;10.064;2023-05-13T01:56:57;3.90;;;3.50;;
12163;SDS011;6145;50.192;10.064;2023-05-13T01:59:24;3.93;;;3.43;;
12163;SDS011;6145;50.192;10.064;2023-05-13T02:01:51;4.20;;;3.53;;
12163;SDS011;6145;50.192;10.064;2023-05-13T02:04:18;5.20;;;3.70;;
12163;SDS011;6145;50.192;10.064;2023-05-13T02:06:45;4.40;;;4.00;;
12163;SDS011;6145;50.192;10.064;2023-05-13T02:09:12;7.70;;;4.50;;
12163;SDS011;6145;50.192;10.064;2023-05-13T02:11:40;4.63;;;4.07;;
12163;SDS011;6145;50.192;10.064;2023-05-13T02:14:08;4.27;;;3.97;;
12163;SDS011;6145;50.192;10.064;2023-05-13T02:16:35;5.60;;;3.77;;
12163;SDS011;6145;50.192;10.064;2023-05-13T02:19:02;4.20;;;3.77;;
12163;SDS011;6145;50.192;10.064;2023-05-13T02:21:29;4.00;;;3.70;;
12163;SDS011;6145;50.192;10.064;2023-05-13T02:23:57;6.20;;;3.93;;
12163;SDS011;6145;50.192;10.064;2023-05-13T02:26:25;4.30;;;3.37;;
12163;SDS011;6145;50.192;10.064;2023-05-13T02:28:52;4.07;;;3.77;;
12163;SDS011;6145;50.192;10.064;2023-05-13T02:31:21;4.13;;;3.37;;
12163;SDS011;6145;50.192;10.064;2023-05-13T02:33:47;4.90;;;3.57;;
12163;SDS011;6145;50.192;10.064;2023-05-13T02:36:14;4.90;;;4.17;;
12163;SDS011;6145;50.192;10.064;2023-05-13T02:38:41;4.40;;;4.00;;
12163;SDS011;6145;50.192;10.064;2023-05-13T02:41:08;4.20;;;3.80;;
12163;SDS011;6145;50.192;10.064;2023-05-13T02:43:35;4.47;;;4.17;;
12163;SDS011;6145;50.192;10.064;2023-05-13T02:46:01;6.27;;;3.77;;
12163;SDS011;6145;50.192;10.064;2023-05-13T02:48:30;4.00;;;3.70;;
12163;SDS011;6145;50.192;10.064;2023-05-13T02:50:57;3.90;;;3.60;;
12163;SDS011;6145;50.192;10.064;2023-05-13T02:53:23;4.20;;;3.80;;
12163;SDS011;6145;50.192;10.064;2023-05-13T02:55:51;6.60;;;4.30;;
12163;SDS011;6145;50.192;10.064;2023-05-13T02:58:18;4.20;;;3.80;;
12163;SDS011;6145;50.192;10.064;2023-05-13T03:00:46;3.67;;;3.30;;
12163;SDS011;6145;50.192;10.064;2023-05-13T03:03:13;4.37;;;3.30;;
12163;SDS011;6145;50.192;10.064;2023-05-13T03:05:41;3.80;;;3.50;;
12163;SDS011;6145;50.192;10.064;2023-05-13T03:08:10;4.87;;;3.40;;
12163;SDS011;6145;50.192;10.064;2023-05-13T03:10:37;3.90;;;3.60;;
12163;SDS011;6145;50.192;10.064;2023-05-13T03:13:04;4.43;;;3.90;;
12163;SDS011;6145;50.192;10.064;2023-05-13T03:15:31;3.47;;;3.20;;
12163;SDS011;6145;50.192;10.064;2023-05-13T03:17:58;5.27;;;4.00;;
12163;SDS011;6145;50.192;10.064;2023-05-13T03:20:25;4.60;;;3.87;;
12163;SDS011;6145;50.192;10.064;2023-05-13T03:22:53;3.80;;;3.50;;
12163;SDS011;6145;50.192;10.064;2023-05-13T03:25:20;5.87;;;3.60;;
12163;SDS011;6145;50.192;10.064;2023-05-13T03:27:47;5.47;;;3.50;;
12163;SDS011;6145;50.192;10.064;2023-05-13T03:30:14;3.70;;;3.40;;
12163;SDS011;6145;50.192;10.064;2023-05-13T03:32:41;4.47;;;4.10;;
12163;SDS011;6145;50.192;10.064;2023-05-13T03:35:07;3.33;;;3.03;;
12163;SDS011;6145;50.192;10.064;2023-05-13T03:37:34;4.67;;;3.40;;
12163;SDS011;6145;50.192;10.064;2023-05-13T03:40:05;3.83;;;3.53;;
12163;SDS011;6145;50.192;10.064;2023-05-13T03:42:33;4.20;;;3.80;;
12163;SDS011;6145;50.192;10.064;2023-05-13T03:44:59;3.90;;;3.53;;
12163;SDS011;6145;50.192;10.064;2023-05-13T03:47:26;4.17;;;3.57;;
12163;SDS011;6145;50.192;10.064;2023-05-13T03:49:53;4.10;;;3.80;;
12163;SDS011;6145;50.192;10.064;2023-05-13T03:52:20;4.47;;;3.80;;
12163;SDS011;6145;50.192;10.064;2023-05-13T03:54:47;3.47;;;3.17;;
12163;SDS011;6145;50.192;10.064;2023-05-13T03:57:15;3.90;;;3.60;;
12163;SDS011;6145;50.192;10.064;2023-05-13T03:59:43;4.30;;;3.63;;
12163;SDS011;6145;50.192;10.064;2023-05-13T04:02:10;4.07;;;3.67;;
12163;SDS011;6145;50.192;10.064;2023-05-13T04:04:37;5.63;;;3.37;;
12163;SDS011;6145;50.192;10.064;2023-05-13T04:07:04;4.83;;;3.97;;
12163;SDS011;6145;50.192;10.064;2023-05-13T04:09:32;5.10;;;3.60;;
12163;SDS011;6145;50.192;10.064;2023-05-13T04:11:59;3.70;;;3.40;;
12163;SDS011;6145;50.192;10.064;2023-05-13T04:14:27;3.43;;;3.20;;
12163;SDS011;6145;50.192;10.064;2023-05-13T04:16:54;3.63;;;3.10;;
12163;SDS011;6145;50.192;10.064;2023-05-13T04:19:20;3.73;;;3.33;;
12163;SDS011;6145;50.192;10.064;2023-05-13T04:21:47;4.20;;;3.80;;
12163;SDS011;6145;50.192;10.064;2023-05-13T04:24:14;3.90;;;3.60;;
12163;SDS011;6145;50.192;10.064;2023-05-13T04:26:41;4.97;;;3.50;;
12163;SDS011;6145;50.192;10.064;2023-05-13T04:29:08;4.87;;;3.23;;
12163;SDS011;6145;50.192;10.064;2023-05-13T04:31:36;4.13;;;3.47;;
12163;SDS011;6145;50.192;10.064;2023-05-13T04:34:02;3.53;;;3.23;;
12163;SDS011;6145;50.192;10.064;2023-05-13T04:36:29;4.00;;;3.70;;
12163;SDS011;6145;50.192;10.064;2023-05-13T04:38:56;4.17;;;3.80;;
12163;SDS011;6145;50.192;10.064;2023-05-13T04:41:23;3.43;;;3.13;;
12163;SDS011;6145;50.192;10.064;2023-05-13T04:43:50;3.70;;;3.33;;
12163;SDS011;6145;50.192;10.064;2023-05-13T04:46:17;3.80;;;3.50;;
12163;SDS011;6145;50.192;10.064;2023-05-13T04:48:45;4.17;;;3.40;;
12163;SDS011;6145;50.192;10.064;2023-05-13T04:51:12;4.07;;;3.70;;
12163;SDS011;6145;50.192;10.064;2023-05-13T04:53:40;4.77;;;4.00;;
12163;SDS011;6145;50.192;10.064;2023-05-13T04:56:07;3.90;;;3.60;;
12163;SDS011;6145;50.192;10.064;2023-05-13T04:58:34;3.80;;;3.50;;
12163;SDS011;6145;50.192;10.064;2023-05-13T05:01:01;5.93;;;3.97;;
12163;SDS011;6145;50.192;10.064;2023-05-13T05:03:28;3.83;;;3.43;;
12163;SDS011;6145;50.192;10.064;2023-05-13T05:05:56;3.53;;;3.23;;
12163;SDS011;6145;50.192;10.064;2023-05-13T05:08:23;3.83;;;3.47;;
12163;SDS011;6145;50.192;10.064;2023-05-13T05:10:50;3.87;;;3.27;;
12163;SDS011;6145;50.192;10.064;2023-05-13T05:13:20;3.83;;;3.53;;
12163;SDS011;6145;50.192;10.064;2023-05-13T05:15:46;4.43;;;4.00;;
12163;SDS011;6145;50.192;10.064;2023-05-13T05:18:13;3.73;;;3.43;;
12163;SDS011;6145;50.192;10.064;2023-05-13T05:20:40;4.10;;;3.70;;
12163;SDS011;6145;50.192;10.064;2023-05-13T05:23:08;5.07;;;3.60;;
12163;SDS011;6145;50.192;10.064;2023-05-13T05:25:35;3.77;;;3.47;;
12163;SDS011;6145;50.192;10.064;2023-05-13T05:28:02;3.50;;;3.23;;
12163;SDS011;6145;50.192;10.064;2023-05-13T05:30:30;3.63;;;3.30;;
12163;SDS011;6145;50.192;10.064;2023-05-13T05:33:03;3.50;;;3.20;;
12163;SDS011;6145;50.192;10.064;2023-05-13T05:35:30;4.30;;;3.90;;
12163;SDS011;6145;50.192;10.064;2023-05-13T05:37:57;4.63;;;4.23;;
12163;SDS011;6145;50.192;10.064;2023-05-13T05:40:44;8.60;;;3.83;;
12163;SDS011;6145;50.192;10.064;2023-05-13T05:43:11;4.57;;;4.17;;
12163;SDS011;6145;50.192;10.064;2023-05-13T05:45:38;5.17;;;4.67;;
12163;SDS011;6145;50.192;10.064;2023-05-13T05:48:05;3.63;;;3.33;;
12163;SDS011;6145;50.192;10.064;2023-05-13T05:50:32;5.30;;;4.27;;
12163;SDS011;6145;50.192;10.064;2023-05-13T05:53:00;4.13;;;3.73;;
12163;SDS011;6145;50.192;10.064;2023-05-13T05:55:27;4.47;;;3.40;;
12163;SDS011;6145;50.192;10.064;2023-05-13T05:57:57;4.27;;;3.73;;
12163;SDS011;6145;50.192;10.064;2023-05-13T06:00:36;3.47;;;3.17;;
12163;SDS011;6145;50.192;10.064;2023-05-13T06:03:03;3.30;;;3.00;;
12163;SDS011;6145;50.192;10.064;2023-05-13T06:05:30;4.33;;;3.83;;
12163;SDS011;6145;50.192;10.064;2023-05-13T06:07:58;4.27;;;3.40;;
12163;SDS011;6145;50.192;10.064;2023-05-13T06:10:25;3.70;;;3.40;;
12163;SDS011;6145;50.192;10.064;2023-05-13T06:12:52;3.60;;;3.40;;
12163;SDS011;6145;50.192;10.064;2023-05-13T06:15:20;3.53;;;3.10;;
12163;SDS011;6145;50.192;10.064;2023-05-13T06:17:47;4.43;;;3.20;;
12163;SDS011;6145;50.192;10.064;2023-05-13T06:20:14;4.03;;;3.20;;
12163;SDS011;6145;50.192;10.064;2023-05-13T06:22:41;3.90;;;3.20;;
12163;SDS011;6145;50.192;10.064;2023-05-13T06:25:08;3.77;;;3.40;;
12163;SDS011;6145;50.192;10.064;2023-05-13T06:27:35;4.63;;;4.23;;
12163;SDS011;6145;50.192;10.064;2023-05-13T06:30:06;4.30;;;3.90;;
12163;SDS011;6145;50.192;10.064;2023-05-13T06:32:35;5.10;;;4.70;;
12163;SDS011;6145;50.192;10.064;2023-05-13T06:35:02;5.03;;;4.73;;
12163;SDS011;6145;50.192;10.064;2023-05-13T06:37:29;5.57;;;5.27;;
12163;SDS011;6145;50.192;10.064;2023-05-13T06:39:56;5.60;;;3.80;;
12163;SDS011;6145;50.192;10.064;2023-05-13T06:42:25;4.77;;;4.40;;
12163;SDS011;6145;50.192;10.064;2023-05-13T06:44:53;5.17;;;4.87;;
12163;SDS011;6145;50.192;10.064;2023-05-13T06:47:21;5.77;;;5.27;;
12163;SDS011;6145;50.192;10.064;2023-05-13T06:49:49;4.47;;;4.17;;
12163;SDS011;6145;50.192;10.064;2023-05-13T06:52:16;3.30;;;3.00;;
12163;SDS011;6145;50.192;10.064;2023-05-13T06:54:43;4.00;;;3.10;;
12163;SDS011;6145;50.192;10.064;2023-05-13T06:57:11;2.90;;;2.70;;
12163;SDS011;6145;50.192;10.064;2023-05-13T06:59:37;3.07;;;2.73;;
12163;SDS011;6145;50.192;10.064;2023-05-13T07:02:04;2.67;;;2.40;;
12163;SDS011;6145;50.192;10.064;2023-05-13T07:04:33;3.27;;;2.97;;
12163;SDS011;6145;50.192;10.064;2023-05-13T07:07:02;3.27;;;2.40;;
12163;SDS011;6145;50.192;10.064;2023-05-13T07:09:29;3.77;;;2.60;;
12163;SDS011;6145;50.192;10.064;2023-05-13T07:11:57;3.27;;;2.70;;
12163;SDS011;6145;50.192;10.064;2023-05-13T07:14:24;4.53;;;3.43;;
12163;SDS011;6145;50.192;10.064;2023-05-13T07:16:51;3.20;;;2.97;;
12163;SDS011;6145;50.192;10.064;2023-05-13T07:19:17;3.47;;;2.90;;
12163;SDS011;6145;50.192;10.064;2023-05-13T07:21:45;2.63;;;2.43;;
12163;SDS011;6145;50.192;10.064;2023-05-13T07:24:13;3.28;;;2.38;;
12163;SDS011;6145;50.192;10.064;2023-05-13T07:26:42;3.05;;;2.75;;
12163;SDS011;6145;50.192;10.064;2023-05-13T07:29:09;3.03;;;2.70;;
12163;SDS011;6145;50.192;10.064;2023-05-13T07:31:36;2.80;;;2.60;;
12163;SDS011;6145;50.192;10.064;2023-05-13T07:34:04;2.60;;;2.40;;
12163;SDS011;6145;50.192;10.064;2023-05-13T07:36:31;4.00;;;2.80;;
12163;SDS011;6145;50.192;10.064;2023-05-13T07:38:57;2.55;;;2.28;;
12163;SDS011;6145;50.192;10.064;2023-05-13T07:41:29;3.20;;;2.47;;
12163;SDS011;6145;50.192;10.064;2023-05-13T07:43:56;3.05;;;2.47;;
12163;SDS011;6145;50.192;10.064;2023-05-13T07:46:23;2.60;;;2.40;;
12163;SDS011;6145;50.192;10.064;2023-05-13T07:48:50;2.78;;;2.53;;
12163;SDS011;6145;50.192;10.064;2023-05-13T07:51:17;3.00;;;2.58;;
12163;SDS011;6145;50.192;10.064;2023-05-13T07:53:44;2.70;;;2.50;;
12163;SDS011;6145;50.192;10.064;2023-05-13T07:56:11;2.60;;;2.40;;
12163;SDS011;6145;50.192;10.064;2023-05-13T07:58:39;2.67;;;2.47;;
12163;SDS011;6145;50.192;10.064;2023-05-13T08:01:06;3.25;;;2.63;;
12163;SDS011;6145;50.192;10.064;2023-05-13T08:03:33;2.45;;;2.35;;
12163;SDS011;6145;50.192;10.064;2023-05-13T08:06:00;2.83;;;2.50;;
12163;SDS011;6145;50.192;10.064;2023-05-13T08:08:26;2.65;;;2.35;;
12163;SDS011;6145;50.192;10.064;2023-05-13T08:10:54;3.15;;;2.72;;
12163;SDS011;6145;50.192;10.064;2023-05-13T08:13:21;2.60;;;2.40;;
12163;SDS011;6145;50.192;10.064;2023-05-13T08:15:49;4.22;;;2.80;;
12163;SDS011;6145;50.192;10.064;2023-05-13T08:18:17;4.18;;;3.15;;
12163;SDS011;6145;50.192;10.064;2023-05-13T08:20:45;2.88;;;2.67;;
12163;SDS011;6145;50.192;10.064;2023-05-13T08:23:14;4.03;;;3.17;;
12163;SDS011;6145;50.192;10.064;2023-05-13T08:25:41;2.78;;;2.50;;
12163;SDS011;6145;50.192;10.064;2023-05-13T08:28:08;8.73;;;3.05;;
12163;SDS011;6145;50.192;10.064;2023-05-13T08:30:36;3.38;;;2.75;;
12163;SDS011;6145;50.192;10.064;2023-05-13T08:33:06;3.35;;;2.50;;
12163;SDS011;6145;50.192;10.064;2023-05-13T08:35:35;2.67;;;2.50;;
12163;SDS011;6145;50.192;10.064;2023-05-13T08:38:02;3.20;;;2.80;;
12163;SDS011;6145;50.192;10.064;2023-05-13T08:40:29;3.00;;;2.80;;
12163;SDS011;6145;50.192;10.064;2023-05-13T08:42:57;3.47;;;2.70;;
12163;SDS011;6145;50.192;10.064;2023-05-13T08:45:30;2.90;;;2.70;;
12163;SDS011;6145;50.192;10.064;2023-05-13T08:47:59;3.88;;;2.97;;
12163;SDS011;6145;50.192;10.064;2023-05-13T08:50:28;3.25;;;2.78;;
12163;SDS011;6145;50.192;10.064;2023-05-13T08:52:56;3.85;;;2.95;;
12163;SDS011;6145;50.192;10.064;2023-05-13T08:55:24;2.92;;;2.38;;
12163;SDS011;6145;50.192;10.064;2023-05-13T08:57:51;3.88;;;3.22;;
12163;SDS011;6145;50.192;10.064;2023-05-13T09:00:18;3.45;;;3.15;;
12163;SDS011;6145;50.192;10.064;2023-05-13T09:02:46;3.08;;;2.53;;
12163;SDS011;6145;50.192;10.064;2023-05-13T09:05:14;3.80;;;2.53;;
12163;SDS011;6145;50.192;10.064;2023-05-13T09:07:42;2.90;;;2.60;;
12163;SDS011;6145;50.192;10.064;2023-05-13T09:10:10;2.78;;;2.58;;
12163;SDS011;6145;50.192;10.064;2023-05-13T09:12:46;2.85;;;2.65;;
12163;SDS011;6145;50.192;10.064;2023-05-13T09:15:14;3.75;;;2.72;;
12163;SDS011;6145;50.192;10.064;2023-05-13T09:17:43;3.30;;;3.00;;
12163;SDS011;6145;50.192;10.064;2023-05-13T09:20:13;2.97;;;2.78;;
12163;SDS011;6145;50.192;10.064;2023-05-13T09:22:46;4.30;;;2.42;;
12163;SDS011;6145;50.192;10.064;2023-05-13T09:25:14;2.88;;;2.63;;
12163;SDS011;6145;50.192;10.064;2023-05-13T09:27:43;3.30;;;2.75;;
12163;SDS011;6145;50.192;10.064;2023-05-13T09:30:12;3.25;;;2.75;;
12163;SDS011;6145;50.192;10.064;2023-05-13T09:32:39;2.88;;;2.65;;
12163;SDS011;6145;50.192;10.064;2023-05-13T09:35:11;3.47;;;3.17;;
12163;SDS011;6145;50.192;10.064;2023-05-13T09:37:43;3.97;;;2.90;;
12163;SDS011;6145;50.192;10.064;2023-05-13T09:40:12;3.35;;;2.58;;
12163;SDS011;6145;50.192;10.064;2023-05-13T09:42:41;3.38;;;2.80;;
12163;SDS011;6145;50.192;10.064;2023-05-13T09:45:09;3.25;;;2.58;;
12163;SDS011;6145;50.192;10.064;2023-05-13T09:47:37;3.40;;;3.00;;
12163;SDS011;6145;50.192;10.064;2023-05-13T09:50:05;3.53;;;3.22;;
12163;SDS011;6145;50.192;10.064;2023-05-13T09:52:33;3.33;;;3.03;;
12163;SDS011;6145;50.192;10.064;2023-05-13T09:55:03;3.67;;;2.83;;
12163;SDS011;6145;50.192;10.064;2023-05-13T09:57:34;3.28;;;2.92;;
12163;SDS011;6145;50.192;10.064;2023-05-13T10:03:09;4.20;;;3.10;;
12163;SDS011;6145;50.192;10.064;2023-05-13T10:05:36;4.03;;;3.63;;
12163;SDS011;6145;50.192;10.064;2023-05-13T10:08:04;3.40;;;3.10;;
12163;SDS011;6145;50.192;10.064;2023-05-13T10:10:35;3.50;;;3.20;;
12163;SDS011;6145;50.192;10.064;2023-05-13T10:13:04;2.88;;;2.67;;
12163;SDS011;6145;50.192;10.064;2023-05-13T10:15:34;3.60;;;3.28;;
12163;SDS011;6145;50.192;10.064;2023-05-13T10:18:02;3.67;;;3.25;;
12163;SDS011;6145;50.192;10.064;2023-05-13T10:20:32;3.38;;;2.92;;
12163;SDS011;6145;50.192;10.064;2023-05-13T10:22:59;3.13;;;2.90;;
12163;SDS011;6145;50.192;10.064;2023-05-13T10:25:28;3.38;;;2.60;;
12163;SDS011;6145;50.192;10.064;2023-05-13T10:27:55;3.88;;;3.10;;
12163;SDS011;6145;50.192;10.064;2023-05-13T10:30:24;3.33;;;3.03;;
12163;SDS011;6145;50.192;10.064;2023-05-13T10:32:52;3.10;;;2.90;;
12163;SDS011;6145;50.192;10.064;2023-05-13T10:35:19;3.83;;;3.43;;
12163;SDS011;6145;50.192;10.064;2023-05-13T10:37:53;3.87;;;2.97;;
12163;SDS011;6145;50.192;10.064;2023-05-13T10:40:28;3.93;;;3.60;;
12163;SDS011;6145;50.192;10.064;2023-05-13T10:43:08;2.90;;;2.70;;
12163;SDS011;6145;50.192;10.064;2023-05-13T10:45:39;4.00;;;3.63;;
12163;SDS011;6145;50.192;10.064;2023-05-13T10:48:10;4.37;;;3.57;;
12163;SDS011;6145;50.192;10.064;2023-05-13T10:50:39;5.30;;;3.47;;
12163;SDS011;6145;50.192;10.064;2023-05-13T10:53:18;4.63;;;3.50;;
12163;SDS011;6145;50.192;10.064;2023-05-13T10:55:46;5.57;;;3.37;;
12163;SDS011;6145;50.192;10.064;2023-05-13T10:58:20;3.37;;;3.07;;
12163;SDS011;6145;50.192;10.064;2023-05-13T11:00:59;3.57;;;3.27;;
12163;SDS011;6145;50.192;10.064;2023-05-13T11:03:49;3.60;;;2.97;;
12163;SDS011;6145;50.192;10.064;2023-05-13T11:06:18;4.70;;;3.30;;
12163;SDS011;6145;50.192;10.064;2023-05-13T11:08:48;4.90;;;3.07;;
12163;SDS011;6145;50.192;10.064;2023-05-13T11:11:23;3.30;;;3.00;;
12163;SDS011;6145;50.192;10.064;2023-05-13T11:13:51;3.80;;;3.50;;
12163;SDS011;6145;50.192;10.064;2023-05-13T11:16:27;4.03;;;3.60;;
12163;SDS011;6145;50.192;10.064;2023-05-13T11:18:54;4.53;;;3.67;;
12163;SDS011;6145;50.192;10.064;2023-05-13T11:21:30;3.07;;;2.83;;
12163;SDS011;6145;50.192;10.064;2023-05-13T11:24:00;3.67;;;3.23;;
12163;SDS011;6145;50.192;10.064;2023-05-13T11:26:42;4.73;;;3.50;;
12163;SDS011;6145;50.192;10.064;2023-05-13T11:29:10;4.23;;;3.83;;
12163;SDS011;6145;50.192;10.064;2023-05-13T11:31:43;3.40;;;3.10;;
12163;SDS011;6145;50.192;10.064;2023-05-13T11:34:12;3.50;;;3.20;;
12163;SDS011;6145;50.192;10.064;2023-05-13T11:36:40;4.40;;;3.67;;
12163;SDS011;6145;50.192;10.064;2023-05-13T11:39:10;3.43;;;3.13;;
12163;SDS011;6145;50.192;10.064;2023-05-13T11:41:40;3.67;;;3.37;;
12163;SDS011;6145;50.192;10.064;2023-05-13T11:44:09;3.73;;;3.27;;
12163;SDS011;6145;50.192;10.064;2023-05-13T11:46:37;3.53;;;3.20;;
12163;SDS011;6145;50.192;10.064;2023-05-13T11:52:01;3.77;;;3.30;;
12163;SDS011;6145;50.192;10.064;2023-05-13T11:54:29;3.57;;;3.27;;
12163;SDS011;6145;50.192;10.064;2023-05-13T11:56:57;3.40;;;3.10;;
12163;SDS011;6145;50.192;10.064;2023-05-13T11:59:23;4.33;;;3.17;;
12163;SDS011;6145;50.192;10.064;2023-05-13T12:01:57;8.63;;;3.40;;
12163;SDS011;6145;50.192;10.064;2023-05-13T12:04:26;4.60;;;3.20;;
12163;SDS011;6145;50.192;10.064;2023-05-13T12:06:55;4.77;;;3.27;;
12163;SDS011;6145;50.192;10.064;2023-05-13T12:09:22;5.10;;;3.40;;
12163;SDS011;6145;50.192;10.064;2023-05-13T12:11:49;3.90;;;3.57;;
12163;SDS011;6145;50.192;10.064;2023-05-13T12:14:17;4.60;;;3.57;;
12163;SDS011;6145;50.192;10.064;2023-05-13T12:16:45;3.50;;;3.03;;
12163;SDS011;6145;50.192;10.064;2023-05-13T12:19:13;4.10;;;3.10;;
12163;SDS011;6145;50.192;10.064;2023-05-13T12:21:40;4.00;;;3.60;;
12163;SDS011;6145;50.192;10.064;2023-05-13T12:24:18;3.67;;;3.30;;
12163;SDS011;6145;50.192;10.064;2023-05-13T12:26:45;3.47;;;2.90;;
12163;SDS011;6145;50.192;10.064;2023-05-13T12:29:12;3.90;;;3.10;;
12163;SDS011;6145;50.192;10.064;2023-05-13T12:31:40;5.00;;;3.23;;
12163;SDS011;6145;50.192;10.064;2023-05-13T12:34:08;3.60;;;3.30;;
12163;SDS011;6145;50.192;10.064;2023-05-13T12:36:35;3.43;;;3.13;;
12163;SDS011;6145;50.192;10.064;2023-05-13T12:39:04;4.20;;;3.63;;
12163;SDS011;6145;50.192;10.064;2023-05-13T12:41:34;3.70;;;3.40;;
12163;SDS011;6145;50.192;10.064;2023-05-13T12:44:03;3.73;;;3.23;;
12163;SDS011;6145;50.192;10.064;2023-05-13T12:46:34;3.53;;;3.23;;
12163;SDS011;6145;50.192;10.064;2023-05-13T12:49:01;3.20;;;2.90;;
12163;SDS011;6145;50.192;10.064;2023-05-13T12:51:29;3.03;;;2.83;;
12163;SDS011;6145;50.192;10.064;2023-05-13T12:53:57;5.40;;;3.30;;
12163;SDS011;6145;50.192;10.064;2023-05-13T12:56:24;3.77;;;3.30;;
12163;SDS011;6145;50.192;10.064;2023-05-13T12:58:53;3.47;;;3.17;;
12163;SDS011;6145;50.192;10.064;2023-05-13T13:01:20;5.23;;;3.37;;
12163;SDS011;6145;50.192;10.064;2023-05-13T13:03:47;3.27;;;2.97;;
12163;SDS011;6145;50.192;10.064;2023-05-13T13:06:13;4.13;;;3.73;;
12163;SDS011;6145;50.192;10.064;2023-05-13T13:08:41;3.67;;;3.03;;
12163;SDS011;6145;50.192;10.064;2023-05-13T13:11:08;3.30;;;3.00;;
12163;SDS011;6145;50.192;10.064;2023-05-13T13:13:38;2.97;;;2.77;;
12163;SDS011;6145;50.192;10.064;2023-05-13T13:16:07;3.30;;;3.00;;
12163;SDS011;6145;50.192;10.064;2023-05-13T13:18:35;4.00;;;3.10;;
12163;SDS011;6145;50.192;10.064;2023-05-13T13:21:02;3.33;;;3.03;;
12163;SDS011;6145;50.192;10.064;2023-05-13T13:23:29;4.00;;;3.23;;
12163;SDS011;6145;50.192;10.064;2023-05-13T13:25:57;3.90;;;3.20;;
12163;SDS011;6145;50.192;10.064;2023-05-13T13:28:25;4.97;;;3.37;;
12163;SDS011;6145;50.192;10.064;2023-05-13T13:30:51;3.20;;;2.90;;
12163;SDS011;6145;50.192;10.064;2023-05-13T13:33:21;3.67;;;3.13;;
12163;SDS011;6145;50.192;10.064;2023-05-13T13:35:48;3.97;;;3.33;;
12163;SDS011;6145;50.192;10.064;2023-05-13T13:38:15;3.67;;;3.13;;
12163;SDS011;6145;50.192;10.064;2023-05-13T13:40:42;3.30;;;3.00;;
12163;SDS011;6145;50.192;10.064;2023-05-13T13:43:09;5.33;;;3.20;;
12163;SDS011;6145;50.192;10.064;2023-05-13T13:45:36;3.50;;;3.20;;
12163;SDS011;6145;50.192;10.064;2023-05-13T13:48:03;3.27;;;2.97;;
12163;SDS011;6145;50.192;10.064;2023-05-13T13:50:31;2.30;;;2.20;;
12163;SDS011;6145;50.192;10.064;2023-05-13T13:52:59;2.70;;;2.50;;
12163;SDS011;6145;50.192;10.064;2023-05-13T13:55:26;3.00;;;2.60;;
12163;SDS011;6145;50.192;10.064;2023-05-13T13:57:53;3.90;;;2.87;;
12163;SDS011;6145;50.192;10.064;2023-05-13T14:00:20;4.23;;;3.20;;
12163;SDS011;6145;50.192;10.064;2023-05-13T14:02:47;3.87;;;3.30;;
12163;SDS011;6145;50.192;10.064;2023-05-13T14:05:14;2.80;;;2.50;;
12163;SDS011;6145;50.192;10.064;2023-05-13T14:07:42;3.20;;;2.80;;
12163;SDS011;6145;50.192;10.064;2023-05-13T14:10:10;3.60;;;2.60;;
12163;SDS011;6145;50.192;10.064;2023-05-13T14:12:37;2.70;;;2.50;;
12163;SDS011;6145;50.192;10.064;2023-05-13T14:15:06;2.50;;;2.30;;
12163;SDS011;6145;50.192;10.064;2023-05-13T14:17:33;3.50;;;2.33;;
12163;SDS011;6145;50.192;10.064;2023-05-13T14:20:02;2.73;;;2.43;;
12163;SDS011;6145;50.192;10.064;2023-05-13T14:22:29;2.50;;;2.30;;
12163;SDS011;6145;50.192;10.064;2023-05-13T14:24:58;2.60;;;2.40;;
12163;SDS011;6145;50.192;10.064;2023-05-13T14:27:25;3.33;;;2.70;;
12163;SDS011;6145;50.192;10.064;2023-05-13T14:29:52;2.87;;;2.67;;
12163;SDS011;6145;50.192;10.064;2023-05-13T14:32:19;2.63;;;2.43;;
12163;SDS011;6145;50.192;10.064;2023-05-13T14:34:47;2.70;;;2.50;;
12163;SDS011;6145;50.192;10.064;2023-05-13T14:37:14;3.53;;;2.50;;
12163;SDS011;6145;50.192;10.064;2023-05-13T14:39:41;2.93;;;2.53;;
12163;SDS011;6145;50.192;10.064;2023-05-13T14:42:09;4.03;;;2.47;;
12163;SDS011;6145;50.192;10.064;2023-05-13T14:44:36;2.90;;;2.43;;
12163;SDS011;6145;50.192;10.064;2023-05-13T14:47:05;2.60;;;2.40;;
12163;SDS011;6145;50.192;10.064;2023-05-13T14:49:32;2.90;;;2.70;;
12163;SDS011;6145;50.192;10.064;2023-05-13T14:51:59;2.40;;;2.20;;
12163;SDS011;6145;50.192;10.064;2023-05-13T14:54:26;2.80;;;2.60;;
12163;SDS011;6145;50.192;10.064;2023-05-13T14:56:53;6.57;;;6.10;;
12163;SDS011;6145;50.192;10.064;2023-05-13T14:59:22;3.10;;;2.77;;